sensor_id;sensor_type;location;lat;lon;timestamp;pressure;altitude;pressure_sealevel;temperature;humidity
38939;BME280;24211;49.980;19.776;2023-02-12T00:01:23;100642.03;;;3.93;100.00
38939;BME280;24211;49.980;19.776;2023-02-12T00:03:50;100642.03;;;3.93;100.00
38939;BME280;24211;49.980;19.776;2023-02-12T00:06:17;100632.16;;;3.95;100.00
38939;BME280;24211;49.980;19.776;2023-02-12T00:08:52;100626.88;;;3.95;100.00
38939;BME280;24211;49.980;19.776;2023-02-12T00:11:25;100625.88;;;3.96;100.00
38939;BME280;24211;49.980;19.776;2023-02-12T00:13:55;100622.56;;;3.94;100.00
38939;BME280;24211;49.980;19.776;2023-02-12T00:16:26;100631.44;;;3.93;100.00
38939;BME280;24211;49.980;19.776;2023-02-12T00:18:57;100635.09;;;3.92;100.00
38939;BME280;24211;49.980;19.776;2023-02-12T00:21:25;100633.41;;;3.91;100.00
38939;BME280;24211;49.980;19.776;2023-02-12T00:23:52;100642.03;;;3.93;100.00
38939;BME280;24211;49.980;19.776;2023-02-12T00:26:21;100643.03;;;3.92;100.00
38939;BME280;24211;49.980;19.776;2023-02-12T00:28:51;100643.03;;;3.92;100.00
38939;BME280;24211;49.980;19.776;2023-02-12T00:31:22;100638.72;;;3.91;100.00
38939;BME280;24211;49.980;19.776;2023-02-12T00:33:51;100644.00;;;3.91;100.00
38939;BME280;24211;49.980;19.776;2023-02-12T00:36:22;100644.84;;;3.92;100.00
38939;BME280;24211;49.980;19.776;2023-02-12T00:38:52;100650.97;;;3.92;100.00
38939;BME280;24211;49.980;19.776;2023-02-12T00:41:22;100637.06;;;3.90;100.00
38939;BME280;24211;49.980;19.776;2023-02-12T00:43:50;100637.06;;;3.90;100.00
38939;BME280;24211;49.980;19.776;2023-02-12T00:46:17;100644.00;;;3.91;100.00
38939;BME280;24211;49.980;19.776;2023-02-12T00:48:45;100636.75;;;3.93;100.00
38939;BME280;24211;49.980;19.776;2023-02-12T00:51:12;100642.75;;;3.95;100.00
38939;BME280;24211;49.980;19.776;2023-02-12T00:53:40;100641.22;;;3.93;100.00
38939;BME280;24211;49.980;19.776;2023-02-12T00:56:07;100641.34;;;3.91;100.00
38939;BME280;24211;49.980;19.776;2023-02-12T00:58:35;100645.38;;;3.95;100.00
38939;BME280;24211;49.980;19.776;2023-02-12T01:01:02;100634.81;;;3.95;100.00
38939;BME280;24211;49.980;19.776;2023-02-12T01:03:30;100644.22;;;3.98;100.00
38939;BME280;24211;49.980;19.776;2023-02-12T01:05:58;100648.72;;;3.97;100.00
38939;BME280;24211;49.980;19.776;2023-02-12T01:08:26;100653.44;;;3.94;100.00
38939;BME280;24211;49.980;19.776;2023-02-12T01:10:57;100655.25;;;3.93;100.00
38939;BME280;24211;49.980;19.776;2023-02-12T01:13:26;100651.63;;;3.94;100.00
38939;BME280;24211;49.980;19.776;2023-02-12T01:16:18;100654.81;;;3.98;100.00
38939;BME280;24211;49.980;19.776;2023-02-12T01:18:46;100652.88;;;4.00;100.00
38939;BME280;24211;49.980;19.776;2023-02-12T01:21:18;100665.94;;;4.02;100.00
38939;BME280;24211;49.980;19.776;2023-02-12T01:23:46;100665.94;;;4.02;100.00
38939;BME280;24211;49.980;19.776;2023-02-12T01:26:15;100664.97;;;4.03;100.00
38939;BME280;24211;49.980;19.776;2023-02-12T01:28:51;100665.94;;;4.02;100.00
38939;BME280;24211;49.980;19.776;2023-02-12T01:31:22;100673.88;;;4.02;100.00
38939;BME280;24211;49.980;19.776;2023-02-12T01:33:53;100679.84;;;4.04;100.00
38939;BME280;24211;49.980;19.776;2023-02-12T01:36:22;100670.94;;;4.05;100.00
38939;BME280;24211;49.980;19.776;2023-02-12T01:38:50;100675.22;;;4.06;100.00
38939;BME280;24211;49.980;19.776;2023-02-12T01:41:21;100680.38;;;4.07;100.00
38939;BME280;24211;49.980;19.776;2023-02-12T01:46:37;100684.66;;;4.08;100.00
38939;BME280;24211;49.980;19.776;2023-02-12T01:49:35;100688.16;;;4.09;100.00
38939;BME280;24211;49.980;19.776;2023-02-12T01:52:20;100689.00;;;4.09;100.00
38939;BME280;24211;49.980;19.776;2023-02-12T01:54:49;100690.78;;;4.09;100.00
38939;BME280;24211;49.980;19.776;2023-02-12T01:57:19;100698.72;;;4.09;100.00
38939;BME280;24211;49.980;19.776;2023-02-12T01:59:50;100688.16;;;4.09;100.00
38939;BME280;24211;49.980;19.776;2023-02-12T02:02:19;100698.72;;;4.09;100.00
38939;BME280;24211;49.980;19.776;2023-02-12T02:04:59;100702.22;;;4.09;100.00
38939;BME280;24211;49.980;19.776;2023-02-12T02:07:31;100702.06;;;4.11;100.00
38939;BME280;24211;49.980;19.776;2023-02-12T02:10:00;100712.34;;;4.14;100.00
38939;BME280;24211;49.980;19.776;2023-02-12T02:12:30;100708.19;;;4.11;100.00
38939;BME280;24211;49.980;19.776;2023-02-12T02:15:16;100703.72;;;4.12;100.00
38939;BME280;24211;49.980;19.776;2023-02-12T02:18:01;100710.16;;;4.09;100.00
38939;BME280;24211;49.980;19.776;2023-02-12T02:20:48;100711.81;;;4.10;100.00
38939;BME280;24211;49.980;19.776;2023-02-12T02:27:04;100719.59;;;4.12;100.00
38939;BME280;24211;49.980;19.776;2023-02-12T02:30:12;100731.88;;;4.13;100.00
38939;BME280;24211;49.980;19.776;2023-02-12T02:38:36;100752.31;;;4.11;100.00
38939;BME280;24211;49.980;19.776;2023-02-12T02:43:52;100754.00;;;4.12;100.00
38939;BME280;24211;49.980;19.776;2023-02-12T02:46:39;100761.66;;;4.15;100.00
38939;BME280;24211;49.980;19.776;2023-02-12T02:49:26;100762.59;;;4.14;100.00
38939;BME280;24211;49.980;19.776;2023-02-12T02:52:13;100760.81;;;4.14;100.00
38939;BME280;24211;49.980;19.776;2023-02-12T02:54:54;100765.25;;;4.14;100.00
38939;BME280;24211;49.980;19.776;2023-02-12T02:57:30;100774.19;;;4.13;100.00
38939;BME280;24211;49.980;19.776;2023-02-12T03:00:17;100758.31;;;4.13;100.00
38939;BME280;24211;49.980;19.776;2023-02-12T03:02:58;100767.22;;;4.12;100.00
38939;BME280;24211;49.980;19.776;2023-02-12T03:05:36;100779.47;;;4.13;100.00
38939;BME280;24211;49.980;19.776;2023-02-12T03:08:13;100780.16;;;4.15;100.00
38939;BME280;24211;49.980;19.776;2023-02-12T03:10:46;100788.09;;;4.15;100.00
38939;BME280;24211;49.980;19.776;2023-02-12T03:13:31;100793.38;;;4.15;100.00
38939;BME280;24211;49.980;19.776;2023-02-12T03:16:08;100790.88;;;4.13;100.00
38939;BME280;24211;49.980;19.776;2023-02-12T03:18:57;100795.19;;;4.14;100.00
38939;BME280;24211;49.980;19.776;2023-02-12T03:21:32;100799.53;;;4.15;100.00
38939;BME280;24211;49.980;19.776;2023-02-12T03:24:30;100805.03;;;4.22;100.00
38939;BME280;24211;49.980;19.776;2023-02-12T03:27:10;100823.19;;;4.17;100.00
38939;BME280;24211;49.980;19.776;2023-02-12T03:29:39;100825.81;;;4.17;100.00
38939;BME280;24211;49.980;19.776;2023-02-12T03:32:29;100814.25;;;4.18;100.00
38939;BME280;24211;49.980;19.776;2023-02-12T03:35:17;100812.31;;;4.20;100.00
38939;BME280;24211;49.980;19.776;2023-02-12T03:38:00;100835.13;;;4.21;100.00
38939;BME280;24211;49.980;19.776;2023-02-12T03:40:46;100832.63;;;4.19;100.00
38939;BME280;24211;49.980;19.776;2023-02-12T03:43:51;100844.88;;;4.20;100.00
38939;BME280;24211;49.980;19.776;2023-02-12T03:46:41;100851.00;;;4.21;100.00
38939;BME280;24211;49.980;19.776;2023-02-12T03:49:23;100836.78;;;4.22;100.00
38939;BME280;24211;49.980;19.776;2023-02-12T03:51:53;100849.03;;;4.23;100.00
38939;BME280;24211;49.980;19.776;2023-02-12T03:54:21;100864.09;;;4.22;100.00
38939;BME280;24211;49.980;19.776;2023-02-12T03:57:20;100866.59;;;4.24;100.00
38939;BME280;24211;49.980;19.776;2023-02-12T03:59:50;100873.56;;;4.25;100.00
38939;BME280;24211;49.980;19.776;2023-02-12T04:02:18;100871.31;;;4.30;100.00
38939;BME280;24211;49.980;19.776;2023-02-12T04:04:46;100874.63;;;4.32;100.00
38939;BME280;24211;49.980;19.776;2023-02-12T04:07:15;100876.00;;;4.36;100.00
38939;BME280;24211;49.980;19.776;2023-02-12T04:09:43;100877.69;;;4.37;100.00
38939;BME280;24211;49.980;19.776;2023-02-12T04:12:38;100895.22;;;4.38;100.00
38939;BME280;24211;49.980;19.776;2023-02-12T04:15:13;100895.06;;;4.39;100.00
38939;BME280;24211;49.980;19.776;2023-02-12T04:18:04;100894.91;;;4.41;100.00
38939;BME280;24211;49.980;19.776;2023-02-12T04:21:11;100894.75;;;4.42;100.00
38939;BME280;24211;49.980;19.776;2023-02-12T04:23:51;100896.59;;;4.42;100.00
38939;BME280;24211;49.980;19.776;2023-02-12T04:26:38;100901.91;;;4.42;100.00
38939;BME280;24211;49.980;19.776;2023-02-12T04:29:43;100898.25;;;4.43;100.00
38939;BME280;24211;49.980;19.776;2023-02-12T04:32:21;100907.19;;;4.42;100.00
38939;BME280;24211;49.980;19.776;2023-02-12T04:35:07;100909.97;;;4.40;100.00
38939;BME280;24211;49.980;19.776;2023-02-12T04:37:43;100906.09;;;4.35;100.00
38939;BME280;24211;49.980;19.776;2023-02-12T04:40:15;100913.34;;;4.33;100.00
38939;BME280;24211;49.980;19.776;2023-02-12T04:42:49;100915.00;;;4.34;100.00
38939;BME280;24211;49.980;19.776;2023-02-12T04:45:26;100920.31;;;4.34;100.00
38939;BME280;24211;49.980;19.776;2023-02-12T04:47:56;100917.66;;;4.34;100.00
38939;BME280;24211;49.980;19.776;2023-02-12T04:50:23;100932.56;;;4.35;100.00
38939;BME280;24211;49.980;19.776;2023-02-12T04:52:51;100928.25;;;4.34;100.00
38939;BME280;24211;49.980;19.776;2023-02-12T04:55:19;100934.50;;;4.33;100.00
38939;BME280;24211;49.980;19.776;2023-02-12T04:57:46;100948.44;;;4.35;100.00
38939;BME280;24211;49.980;19.776;2023-02-12T05:00:14;100950.09;;;4.36;100.00
38939;BME280;24211;49.980;19.776;2023-02-12T05:02:41;100952.06;;;4.34;100.00
38939;BME280;24211;49.980;19.776;2023-02-12T05:05:08;100968.63;;;4.36;100.00
38939;BME280;24211;49.980;19.776;2023-02-12T05:07:36;100965.69;;;4.39;100.00
38939;BME280;24211;49.980;19.776;2023-02-12T05:10:04;100971.00;;;4.39;100.00
38939;BME280;24211;49.980;19.776;2023-02-12T05:12:31;100976.28;;;4.39;100.00
38939;BME280;24211;49.980;19.776;2023-02-12T05:14:58;100972.97;;;4.37;100.00
38939;BME280;24211;49.980;19.776;2023-02-12T05:17:25;100980.91;;;4.37;100.00
38939;BME280;24211;49.980;19.776;2023-02-12T05:19:52;100987.16;;;4.36;100.00
38939;BME280;24211;49.980;19.776;2023-02-12T05:22:20;100989.53;;;4.39;100.00
38939;BME280;24211;49.980;19.776;2023-02-12T05:24:47;100993.00;;;4.39;100.00
38939;BME280;24211;49.980;19.776;2023-02-12T05:27:14;100995.38;;;4.33;100.00
38939;BME280;24211;49.980;19.776;2023-02-12T05:29:41;101006.13;;;4.31;100.00
38939;BME280;24211;49.980;19.776;2023-02-12T05:32:09;101008.91;;;4.30;100.00
38939;BME280;24211;49.980;19.776;2023-02-12T05:34:37;101014.34;;;4.28;100.00
38939;BME280;24211;49.980;19.776;2023-02-12T05:37:04;101017.81;;;4.29;100.00
38939;BME280;24211;49.980;19.776;2023-02-12T05:39:31;101016.16;;;4.28;100.00
38939;BME280;24211;49.980;19.776;2023-02-12T05:41:58;101026.72;;;4.28;100.00
38939;BME280;24211;49.980;19.776;2023-02-12T05:44:25;101035.09;;;4.23;100.00
38939;BME280;24211;49.980;19.776;2023-02-12T05:46:53;101035.41;;;4.11;100.00
38939;BME280;24211;49.980;19.776;2023-02-12T05:49:20;101035.13;;;4.14;100.00
38939;BME280;24211;49.980;19.776;2023-02-12T05:51:48;101042.78;;;4.17;100.00
38939;BME280;24211;49.980;19.776;2023-02-12T05:54:15;101049.03;;;4.16;100.00
38939;BME280;24211;49.980;19.776;2023-02-12T05:56:46;101050.88;;;4.15;100.00
38939;BME280;24211;49.980;19.776;2023-02-12T05:59:22;101057.38;;;4.21;100.00
38939;BME280;24211;49.980;19.776;2023-02-12T06:01:50;101060.72;;;4.23;100.00
38939;BME280;24211;49.980;19.776;2023-02-12T06:04:23;101066.31;;;4.20;100.00
38939;BME280;24211;49.980;19.776;2023-02-12T06:06:52;101068.97;;;4.20;100.00
38939;BME280;24211;49.980;19.776;2023-02-12T06:09:20;101065.75;;;4.16;100.00
38939;BME280;24211;49.980;19.776;2023-02-12T06:11:48;101068.13;;;4.10;100.00
38939;BME280;24211;49.980;19.776;2023-02-12T06:14:18;101078.31;;;4.05;100.00
38939;BME280;24211;49.980;19.776;2023-02-12T06:16:48;101079.41;;;4.12;100.00
38939;BME280;24211;49.980;19.776;2023-02-12T06:19:18;101083.44;;;4.16;100.00
38939;BME280;24211;49.980;19.776;2023-02-12T06:21:46;101080.78;;;4.16;100.00
38939;BME280;24211;49.980;19.776;2023-02-12T06:24:15;101088.72;;;4.16;100.00
38939;BME280;24211;49.980;19.776;2023-02-12T06:26:44;101091.69;;;4.13;100.00
38939;BME280;24211;49.980;19.776;2023-02-12T06:29:11;101099.19;;;4.08;100.00
38939;BME280;24211;49.980;19.776;2023-02-12T06:31:42;101097.50;;;4.07;100.00
38939;BME280;24211;49.980;19.776;2023-02-12T06:34:12;101115.34;;;4.05;100.00
38939;BME280;24211;49.980;19.776;2023-02-12T06:36:41;101113.66;;;4.04;100.00
38939;BME280;24211;49.980;19.776;2023-02-12T06:39:13;101116.19;;;3.95;100.00
38939;BME280;24211;49.980;19.776;2023-02-12T06:41:42;101118.41;;;3.90;100.00
38939;BME280;24211;49.980;19.776;2023-02-12T06:44:11;101112.28;;;3.90;100.00
38939;BME280;24211;49.980;19.776;2023-02-12T06:46:39;101119.78;;;3.94;100.00
38939;BME280;24211;49.980;19.776;2023-02-12T06:49:06;101125.06;;;3.94;100.00
38939;BME280;24211;49.980;19.776;2023-02-12T06:51:33;101124.81;;;3.97;100.00
38939;BME280;24211;49.980;19.776;2023-02-12T06:54:02;101128.84;;;4.02;100.00
38939;BME280;24211;49.980;19.776;2023-02-12T06:56:29;101131.22;;;4.05;100.00
38939;BME280;24211;49.980;19.776;2023-02-12T06:58:58;101129.25;;;4.07;100.00
38939;BME280;24211;49.980;19.776;2023-02-12T07:01:29;101129.00;;;4.10;100.00
38939;BME280;24211;49.980;19.776;2023-02-12T07:04:00;101133.72;;;4.16;100.00
38939;BME280;24211;49.980;19.776;2023-02-12T07:06:31;101135.66;;;4.23;100.00
38939;BME280;24211;49.980;19.776;2023-02-12T07:09:00;101137.88;;;4.28;100.00
38939;BME280;24211;49.980;19.776;2023-02-12T07:11:32;101144.31;;;4.35;100.00
38939;BME280;24211;49.980;19.776;2023-02-12T07:14:04;101137.06;;;4.37;100.00
38939;BME280;24211;49.980;19.776;2023-02-12T07:16:31;101141.78;;;4.43;100.00
38939;BME280;24211;49.980;19.776;2023-02-12T07:18:58;101149.84;;;4.51;100.00
38939;BME280;24211;49.980;19.776;2023-02-12T07:21:25;101156.25;;;4.58;100.00
38939;BME280;24211;49.980;19.776;2023-02-12T07:23:52;101153.75;;;4.66;100.00
38939;BME280;24211;49.980;19.776;2023-02-12T07:26:20;101154.69;;;4.75;100.00
38939;BME280;24211;49.980;19.776;2023-02-12T07:28:49;101163.19;;;4.78;100.00
38939;BME280;24211;49.980;19.776;2023-02-12T07:31:21;101165.13;;;4.86;100.00
38939;BME280;24211;49.980;19.776;2023-02-12T07:33:54;101172.06;;;4.96;100.00
38939;BME280;24211;49.980;19.776;2023-02-12T07:36:24;101155.59;;;5.02;100.00
38939;BME280;24211;49.980;19.776;2023-02-12T07:38:53;101169.81;;;5.11;100.00
38939;BME280;24211;49.980;19.776;2023-02-12T07:41:27;101179.53;;;5.20;100.00
38939;BME280;24211;49.980;19.776;2023-02-12T07:44:04;101171.53;;;5.29;100.00
38939;BME280;24211;49.980;19.776;2023-02-12T07:49:06;101170.78;;;5.47;100.00
38939;BME280;24211;49.980;19.776;2023-02-12T07:51:34;101179.53;;;5.57;100.00
38939;BME280;24211;49.980;19.776;2023-02-12T07:54:02;101178.78;;;5.64;100.00
38939;BME280;24211;49.980;19.776;2023-02-12T07:56:34;101181.97;;;5.68;100.00
38939;BME280;24211;49.980;19.776;2023-02-12T07:59:27;101192.38;;;5.79;100.00
38939;BME280;24211;49.980;19.776;2023-02-12T08:01:54;101191.38;;;5.80;100.00
38939;BME280;24211;49.980;19.776;2023-02-12T08:04:24;101189.88;;;5.77;100.00
38939;BME280;24211;49.980;19.776;2023-02-12T08:06:54;101194.03;;;5.80;100.00
38939;BME280;24211;49.980;19.776;2023-02-12T08:09:26;101198.38;;;5.81;100.00
38939;BME280;24211;49.980;19.776;2023-02-12T08:11:53;101198.78;;;5.59;100.00
38939;BME280;24211;49.980;19.776;2023-02-12T08:14:21;101197.81;;;5.60;100.00
38939;BME280;24211;49.980;19.776;2023-02-12T08:16:49;101192.97;;;5.73;100.00
38939;BME280;24211;49.980;19.776;2023-02-12T08:19:18;101198.38;;;5.54;100.00
38939;BME280;24211;49.980;19.776;2023-02-12T08:21:53;101206.16;;;5.28;100.00
38939;BME280;24211;49.980;19.776;2023-02-12T08:24:22;101211.31;;;5.29;100.00
38939;BME280;24211;49.980;19.776;2023-02-12T08:26:50;101213.84;;;5.21;100.00
38939;BME280;24211;49.980;19.776;2023-02-12T08:29:22;101206.81;;;5.40;100.00
38939;BME280;24211;49.980;19.776;2023-02-12T08:31:59;101215.31;;;5.34;100.00
38939;BME280;24211;49.980;19.776;2023-02-12T08:34:30;101223.06;;;5.17;100.00
38939;BME280;24211;49.980;19.776;2023-02-12T08:36:59;101228.13;;;5.11;100.00
38939;BME280;24211;49.980;19.776;2023-02-12T08:39:28;101226.66;;;5.36;100.00
38939;BME280;24211;49.980;19.776;2023-02-12T08:41:57;101226.66;;;5.36;100.00
38939;BME280;24211;49.980;19.776;2023-02-12T08:44:25;101224.28;;;5.33;100.00
38939;BME280;24211;49.980;19.776;2023-02-12T08:46:53;101233.03;;;5.43;100.00
38939;BME280;24211;49.980;19.776;2023-02-12T08:49:25;101227.63;;;5.35;100.00
38939;BME280;24211;49.980;19.776;2023-02-12T08:51:56;101232.19;;;5.42;100.00
38939;BME280;24211;49.980;19.776;2023-02-12T08:54:27;101240.31;;;5.31;100.00
38939;BME280;24211;49.980;19.776;2023-02-12T08:56:58;101242.25;;;5.39;100.00
38939;BME280;24211;49.980;19.776;2023-02-12T08:59:26;101245.03;;;5.47;100.00
38939;BME280;24211;49.980;19.776;2023-02-12T09:01:53;101244.81;;;5.31;100.00
38939;BME280;24211;49.980;19.776;2023-02-12T09:04:27;101246.63;;;5.30;100.00
38939;BME280;24211;49.980;19.776;2023-02-12T09:06:55;101246.75;;;5.19;100.00
38939;BME280;24211;49.980;19.776;2023-02-12T09:09:22;101254.47;;;5.12;100.00
38939;BME280;24211;49.980;19.776;2023-02-12T09:11:50;101270.50;;;5.11;100.00
38939;BME280;24211;49.980;19.776;2023-02-12T09:14:18;101268.78;;;5.29;100.00
38939;BME280;24211;49.980;19.776;2023-02-12T09:16:53;101278.00;;;5.35;100.00
38939;BME280;24211;49.980;19.776;2023-02-12T09:19:21;101277.16;;;5.34;100.00
38939;BME280;24211;49.980;19.776;2023-02-12T09:21:53;101277.72;;;5.38;100.00
38939;BME280;24211;49.980;19.776;2023-02-12T09:24:24;101271.81;;;5.44;100.00
38939;BME280;24211;49.980;19.776;2023-02-12T09:26:53;101287.16;;;5.50;100.00
38939;BME280;24211;49.980;19.776;2023-02-12T09:29:20;101274.59;;;5.52;100.00
38939;BME280;24211;49.980;19.776;2023-02-12T09:31:48;101294.13;;;5.51;100.00
38939;BME280;24211;49.980;19.776;2023-02-12T09:34:15;101287.97;;;5.60;100.00
38939;BME280;24211;49.980;19.776;2023-02-12T09:36:42;101288.25;;;5.57;100.00
38939;BME280;24211;49.980;19.776;2023-02-12T09:39:09;101296.13;;;5.39;100.00
38939;BME280;24211;49.980;19.776;2023-02-12T09:42:08;101296.97;;;5.40;100.00
38939;BME280;24211;49.980;19.776;2023-02-12T09:45:01;101293.84;;;5.54;100.00
38939;BME280;24211;49.980;19.776;2023-02-12T09:53:16;101288.53;;;5.54;100.00
38939;BME280;24211;49.980;19.776;2023-02-12T09:55:44;101289.91;;;5.58;100.00
38939;BME280;24211;49.980;19.776;2023-02-12T09:58:27;101294.91;;;5.70;100.00
38939;BME280;24211;49.980;19.776;2023-02-12T10:00:56;101298.22;;;5.82;100.00
38939;BME280;24211;49.980;19.776;2023-02-12T10:03:26;101296.00;;;5.87;100.00
38939;BME280;24211;49.980;19.776;2023-02-12T10:06:10;101299.91;;;5.73;100.00
38939;BME280;24211;49.980;19.776;2023-02-12T10:09:08;101302.44;;;5.65;100.00
38939;BME280;24211;49.980;19.776;2023-02-12T10:12:30;101311.22;;;5.75;100.00
38939;BME280;24211;49.980;19.776;2023-02-12T10:15:14;101307.44;;;5.78;100.00
38939;BME280;24211;49.980;19.776;2023-02-12T10:24:17;101312.50;;;6.08;100.00
38939;BME280;24211;49.980;19.776;2023-02-12T10:26:53;101312.63;;;6.16;100.00
38939;BME280;24211;49.980;19.776;2023-02-12T10:29:30;101321.50;;;6.25;100.00
38939;BME280;24211;49.980;19.776;2023-02-12T10:32:21;101313.44;;;6.17;100.00
38939;BME280;24211;49.980;19.776;2023-02-12T10:34:52;101311.50;;;6.19;100.00
38939;BME280;24211;49.980;19.776;2023-02-12T10:37:42;101314.38;;;6.25;100.00
38939;BME280;24211;49.980;19.776;2023-02-12T10:40:31;101319.47;;;6.36;100.00
38939;BME280;24211;49.980;19.776;2023-02-12T10:43:01;101318.59;;;6.45;100.00
38939;BME280;24211;49.980;19.776;2023-02-12T10:45:35;101318.16;;;6.50;100.00
38939;BME280;24211;49.980;19.776;2023-02-12T10:48:22;101307.34;;;6.51;100.00
38939;BME280;24211;49.980;19.776;2023-02-12T10:53:44;101323.78;;;6.65;100.00
38939;BME280;24211;49.980;19.776;2023-02-12T11:04:28;101321.72;;;6.94;100.00
38939;BME280;24211;49.980;19.776;2023-02-12T11:07:05;101308.16;;;6.97;100.00
38939;BME280;24211;49.980;19.776;2023-02-12T11:09:42;101306.53;;;7.04;100.00
38939;BME280;24211;49.980;19.776;2023-02-12T11:12:34;101311.56;;;7.07;100.00
38939;BME280;24211;49.980;19.776;2023-02-12T11:15:31;101308.81;;;7.16;100.00
38939;BME280;24211;49.980;19.776;2023-02-12T11:18:06;101303.69;;;7.23;100.00
38939;BME280;24211;49.980;19.776;2023-02-12T11:20:57;101315.38;;;7.30;100.00
38939;BME280;24211;49.980;19.776;2023-02-12T11:23:34;101320.41;;;7.33;100.00
38939;BME280;24211;49.980;19.776;2023-02-12T11:29:01;101320.69;;;7.30;100.00
38939;BME280;24211;49.980;19.776;2023-02-12T11:31:34;101316.41;;;7.37;100.00
38939;BME280;24211;49.980;19.776;2023-02-12T11:34:12;101316.78;;;7.42;100.00
38939;BME280;24211;49.980;19.776;2023-02-12T11:36:47;101314.56;;;7.55;100.00
38939;BME280;24211;49.980;19.776;2023-02-12T11:39:26;101313.63;;;7.64;100.00
38939;BME280;24211;49.980;19.776;2023-02-12T11:42:34;101310.28;;;7.88;100.00
38939;BME280;24211;49.980;19.776;2023-02-12T11:45:04;101301.88;;;8.09;100.00
38939;BME280;24211;49.980;19.776;2023-02-12T11:47:34;101301.00;;;8.34;100.00
38939;BME280;24211;49.980;19.776;2023-02-12T11:52:49;101314.34;;;8.42;100.00
38939;BME280;24211;49.980;19.776;2023-02-12T11:55:31;101311.72;;;8.50;100.00
38939;BME280;24211;49.980;19.776;2023-02-12T11:58:04;101298.41;;;8.82;100.00
38939;BME280;24211;49.980;19.776;2023-02-12T12:01:07;101292.94;;;9.00;100.00
38939;BME280;24211;49.980;19.776;2023-02-12T12:06:37;101298.44;;;9.23;100.00
38939;BME280;24211;49.980;19.776;2023-02-12T12:09:21;101287.06;;;9.45;100.00
38939;BME280;24211;49.980;19.776;2023-02-12T12:12:21;101277.38;;;9.68;100.00
38939;BME280;24211;49.980;19.776;2023-02-12T12:14:57;101276.13;;;9.86;100.00
38939;BME280;24211;49.980;19.776;2023-02-12T12:21:18;101272.19;;;10.13;100.00
38939;BME280;24211;49.980;19.776;2023-02-12T12:24:04;101271.97;;;10.23;100.00
38939;BME280;24211;49.980;19.776;2023-02-12T12:26:41;101264.63;;;10.25;100.00
38939;BME280;24211;49.980;19.776;2023-02-12T12:29:27;101264.19;;;10.44;100.00
38939;BME280;24211;49.980;19.776;2023-02-12T12:32:02;101260.66;;;10.52;100.00
38939;BME280;24211;49.980;19.776;2023-02-12T12:34:31;101257.66;;;10.46;100.00
38939;BME280;24211;49.980;19.776;2023-02-12T12:37:21;101256.59;;;10.56;100.00
38939;BME280;24211;49.980;19.776;2023-02-12T12:57:48;101248.41;;;10.80;100.00
38939;BME280;24211;49.980;19.776;2023-02-12T13:01:41;101258.19;;;10.87;100.00
38939;BME280;24211;49.980;19.776;2023-02-12T13:13:28;101255.59;;;11.68;100.00
38939;BME280;24211;49.980;19.776;2023-02-12T13:16:13;101261.09;;;11.52;100.00
38939;BME280;24211;49.980;19.776;2023-02-12T13:22:01;101264.56;;;11.75;100.00
38939;BME280;24211;49.980;19.776;2023-02-12T13:27:43;101268.81;;;11.85;100.00
38939;BME280;24211;49.980;19.776;2023-02-12T13:30:37;101272.00;;;11.65;100.00
38939;BME280;24211;49.980;19.776;2023-02-12T13:33:28;101267.16;;;11.84;100.00
38939;BME280;24211;49.980;19.776;2023-02-12T13:36:06;101269.28;;;11.73;100.00
38939;BME280;24211;49.980;19.776;2023-02-12T13:39:11;101267.25;;;11.75;100.00
38939;BME280;24211;49.980;19.776;2023-02-12T13:41:53;101272.28;;;11.56;100.00
38939;BME280;24211;49.980;19.776;2023-02-12T13:45:02;101270.97;;;11.37;100.00
38939;BME280;24211;49.980;19.776;2023-02-12T13:48:33;101274.44;;;11.23;100.00
38939;BME280;24211;49.980;19.776;2023-02-12T13:51:47;101275.81;;;11.19;100.00
38939;BME280;24211;49.980;19.776;2023-02-12T13:57:22;101277.84;;;11.17;100.00
38939;BME280;24211;49.980;19.776;2023-02-12T13:59:55;101277.22;;;11.15;100.00
38939;BME280;24211;49.980;19.776;2023-02-12T14:05:24;101281.06;;;11.12;100.00
38939;BME280;24211;49.980;19.776;2023-02-12T14:07:59;101281.88;;;11.13;100.00
38939;BME280;24211;49.980;19.776;2023-02-12T14:10:36;101279.66;;;11.02;100.00
38939;BME280;24211;49.980;19.776;2023-02-12T14:13:18;101284.31;;;10.85;100.00
38939;BME280;24211;49.980;19.776;2023-02-12T14:15:55;101285.69;;;10.96;100.00
38939;BME280;24211;49.980;19.776;2023-02-12T14:18:37;101281.31;;;10.80;100.00
38939;BME280;24211;49.980;19.776;2023-02-12T14:23:40;101286.34;;;10.52;100.00
38939;BME280;24211;49.980;19.776;2023-02-12T14:26:15;101285.22;;;10.47;100.00
38939;BME280;24211;49.980;19.776;2023-02-12T14:28:57;101288.28;;;10.36;100.00
38939;BME280;24211;49.980;19.776;2023-02-12T14:36:49;101281.72;;;10.16;100.00
38939;BME280;24211;49.980;19.776;2023-02-12T14:39:35;101277.59;;;9.97;100.00
38939;BME280;24211;49.980;19.776;2023-02-12T14:44:56;101283.31;;;9.78;100.00
38939;BME280;24211;49.980;19.776;2023-02-12T14:50:37;101292.56;;;9.59;100.00
38939;BME280;24211;49.980;19.776;2023-02-12T14:53:30;101297.41;;;9.48;100.00
38939;BME280;24211;49.980;19.776;2023-02-12T14:56:02;101300.09;;;9.32;100.00
38939;BME280;24211;49.980;19.776;2023-02-12T14:58:31;101298.44;;;9.23;100.00
38939;BME280;24211;49.980;19.776;2023-02-12T15:01:02;101300.63;;;9.11;100.00
38939;BME280;24211;49.980;19.776;2023-02-12T15:06:17;101301.09;;;8.82;100.00
38939;BME280;24211;49.980;19.776;2023-02-12T15:09:06;101305.25;;;8.69;100.00